Time;durP1;ratioP1;P1;durP2;ratioP2;P2;SDS_P1;SDS_P2;PMS_P1;PMS_P2;Temp;Humidity;BMP_temperature;BMP_pressure;BME280_temperature;BME280_humidity;BME280_pressure;Samples;Min_cycle;Max_cycle;Signal;HPM_P1;HPM_P2
2022/04/21 00:03:23;;;;;;;14.52;8.23;;;;;;;7.57;44.53;99504.34;7652592;32;140139;-74
2022/04/21 00:07:39;;;;;;;14.82;9.40;;;;;;;7.22;45.35;99505.66;7658322;32;40859;-74
2022/04/21 00:11:55;;;;;;;13.40;8.75;;;;;;;7.09;45.68;99510.44;7657942;32;37808;-74
2022/04/21 00:16:12;;;;;;;12.82;8.70;;;;;;;7.07;45.81;99517.16;7658393;32;37517;-74
2022/04/21 00:20:28;;;;;;;14.60;8.80;;;;;;;7.11;45.89;99508.28;7658650;32;40214;-75
2022/04/21 00:24:44;;;;;;;13.23;9.20;;;;;;;6.93;46.23;99506.75;7658068;32;40025;-74
2022/04/21 00:29:00;;;;;;;12.55;8.23;;;;;;;7.28;45.06;99508.19;7657954;32;38083;-74
2022/04/21 00:33:17;;;;;;;13.10;9.30;;;;;;;7.45;44.83;99501.81;7657744;32;37163;-75
2022/04/21 00:37:42;;;;;;;14.35;9.02;;;;;;;6.92;46.33;99504.28;7657690;32;40110;-74
2022/04/21 00:41:59;;;;;;;15.25;9.43;;;;;;;6.94;46.05;99502.16;7658026;32;40042;-74
2022/04/21 00:46:21;;;;;;;12.70;8.95;;;;;;;7.08;45.51;99506.06;7657673;32;37810;-74
2022/04/21 00:50:37;;;;;;;15.88;9.15;;;;;;;6.77;46.53;99513.06;7656541;32;38327;-73
2022/04/21 00:54:54;;;;;;;14.35;9.23;;;;;;;7.07;45.53;99501.75;7656248;32;39210;-74
2022/04/21 00:59:11;;;;;;;16.87;9.75;;;;;;;6.82;45.97;99505.00;7657549;32;39887;-74
2022/04/21 01:03:27;;;;;;;15.57;9.50;;;;;;;6.87;45.98;99499.63;7656973;32;38648;-74
2022/04/21 01:07:43;;;;;;;13.77;9.25;;;;;;;7.00;45.72;99501.09;7657374;32;37386;-74
2022/04/21 01:11:59;;;;;;;14.38;9.13;;;;;;;6.56;47.13;99503.88;7652456;32;40046;-74
2022/04/21 01:16:15;;;;;;;19.52;9.82;;;;;;;6.34;47.45;99507.38;7629676;32;40708;-74
2022/04/21 01:20:33;;;;;;;15.63;9.65;;;;;;;6.46;47.64;99495.63;7631544;32;37824;-74
2022/04/21 01:24:49;;;;;;;14.80;9.77;;;;;;;6.46;47.84;99495.63;7631777;32;37284;-74
2022/04/21 01:29:05;;;;;;;14.52;9.27;;;;;;;6.47;47.92;99502.66;7633907;32;39245;-74
2022/04/21 01:33:21;;;;;;;16.08;9.60;;;;;;;6.58;48.31;99496.31;7633891;32;39973;-74
2022/04/21 01:42:14;;;;;;;15.50;9.95;;;;;;;6.30;49.91;99492.72;7633740;32;38191;-74
2022/04/21 01:46:30;;;;;;;14.27;9.43;;;;;;;6.81;48.74;99475.44;7633750;32;39832;-74
2022/04/21 01:50:46;;;;;;;15.48;9.43;;;;;;;6.84;49.18;99474.94;7633548;32;39617;-74
2022/04/21 01:55:06;;;;;;;13.10;9.52;;;;;;;6.19;50.84;99480.94;7637843;32;37648;-72
2022/04/21 01:59:22;;;;;;;14.87;9.88;;;;;;;6.49;50.08;99489.72;7659857;32;37093;-74
2022/04/21 02:03:38;;;;;;;14.52;9.23;;;;;;;6.67;49.13;99483.94;7635119;32;39265;-74
2022/04/21 02:07:54;;;;;;;14.48;9.55;;;;;;;6.83;49.58;99476.84;7633484;32;40051;-72
2022/04/21 02:12:11;;;;;;;15.32;9.85;;;;;;;6.69;50.25;99468.28;7633221;32;37872;-74
2022/04/21 02:16:27;;;;;;;14.82;8.73;;;;;;;6.80;49.78;99463.78;7633322;32;37951;-74
2022/04/21 02:20:43;;;;;;;16.20;9.57;;;;;;;6.69;49.37;99459.31;7633223;32;39375;-75
2022/04/21 02:24:59;;;;;;;14.63;9.50;;;;;;;6.60;49.91;99453.53;7633210;32;39951;-75
2022/04/21 02:29:15;;;;;;;15.20;9.30;;;;;;;7.10;47.40;99452.41;7633044;32;37782;-74
2022/04/21 02:33:31;;;;;;;15.10;8.80;;;;;;;6.89;47.59;99456.03;7656519;32;37106;-75
2022/04/21 02:37:47;;;;;;;17.20;9.57;;;;;;;6.82;47.73;99444.56;7658585;32;40036;-74
2022/04/21 02:42:04;;;;;;;12.90;8.35;;;;;;;6.81;47.96;99445.63;7659247;32;40222;-74
2022/04/21 02:46:25;;;;;;;15.55;9.13;;;;;;;7.03;47.22;99440.16;7658930;32;37997;-75
2022/04/21 02:50:41;;;;;;;15.13;9.35;;;;;;;7.07;47.16;99452.97;7658106;32;37946;-75
2022/04/21 02:59:32;;;;;;;14.20;8.60;;;;;;;7.04;46.95;99453.47;7659145;32;40579;-74
2022/04/21 03:03:48;;;;;;;14.25;8.18;;;;;;;7.18;46.62;99453.06;7657127;32;37984;-74
2022/04/21 03:08:05;;;;;;;12.52;8.40;;;;;;;7.43;45.13;99453.25;7658977;32;37624;-75
2022/04/21 03:12:26;;;;;;;15.95;8.60;;;;;;;7.13;46.01;99445.69;7658974;32;39374;-75
2022/04/21 03:16:42;;;;;;;14.02;9.60;;;;;;;6.84;46.59;99461.38;7658932;32;40882;-75
2022/04/21 03:25:34;;;;;;;12.05;8.43;;;;;;;6.87;46.83;99466.31;7658862;32;37130;-74
2022/04/21 03:29:50;;;;;;;14.55;9.18;;;;;;;7.12;46.57;99466.56;7657419;32;40132;-75
2022/04/21 03:34:06;;;;;;;15.77;9.13;;;;;;;6.69;47.48;99462.03;7658647;32;40864;-75
2022/04/21 03:38:22;;;;;;;15.02;9.20;;;;;;;6.67;47.10;99459.56;7636441;32;38060;-74
2022/04/21 03:42:39;;;;;;;13.48;8.95;;;;;;;6.47;48.85;99454.75;7632561;32;37995;-74
2022/04/21 03:46:58;;;;;;;13.02;9.02;;;;;;;6.59;50.43;99462.75;7631956;32;39269;-74
2022/04/21 03:51:15;;;;;;;16.35;9.68;;;;;;;6.52;51.12;99457.53;7632202;32;39913;-74
2022/04/21 03:55:31;;;;;;;14.55;9.38;;;;;;;6.52;50.35;99470.22;7632261;32;38424;-74
2022/04/21 03:59:47;;;;;;;13.82;8.60;;;;;;;6.41;50.94;99476.59;7632081;32;38074;-74
2022/04/21 04:04:03;;;;;;;17.95;9.27;;;;;;;6.48;50.72;99472.63;7632021;32;39475;-73
2022/04/21 04:12:54;;;;;;;14.32;9.50;;;;;;;6.87;49.73;99482.56;7631975;32;38062;-74
2022/04/21 04:17:10;;;;;;;13.98;9.00;;;;;;;6.55;50.59;99483.28;7632049;32;37703;-75
2022/04/21 04:21:26;;;;;;;13.27;8.57;;;;;;;6.57;50.58;99483.84;7631871;32;40032;-74
2022/04/21 04:25:42;;;;;;;13.43;8.23;;;;;;;6.64;50.26;99491.78;7631832;32;40890;-74
2022/04/21 04:29:58;;;;;;;13.98;9.43;;;;;;;6.40;50.80;99486.62;7634458;32;37789;-75
2022/04/21 04:34:15;;;;;;;20.73;9.52;;;;;;;6.46;50.93;99492.91;7657901;32;37445;-75
2022/04/21 04:38:31;;;;;;;15.02;9.05;;;;;;;6.80;49.69;99487.38;7656523;32;39352;-74
2022/04/21 04:42:47;;;;;;;14.77;9.30;;;;;;;6.54;50.47;99493.28;7657703;32;39891;-74
2022/04/21 04:47:03;;;;;;;14.13;9.23;;;;;;;6.64;50.08;99491.78;7657678;32;38071;-75
2022/04/21 04:51:20;;;;;;;15.88;10.02;;;;;;;7.03;48.92;99484.34;7657622;32;37212;-75
2022/04/21 04:55:37;;;;;;;15.75;9.40;;;;;;;6.82;49.43;99482.50;7657502;32;40078;-75
2022/04/21 04:59:53;;;;;;;18.00;9.88;;;;;;;7.21;48.65;99485.03;7653543;32;40005;-75
2022/04/21 05:04:17;;;;;;;18.42;9.95;;;;;;;7.14;49.02;99488.00;7630989;32;38603;-74
2022/04/21 05:08:34;;;;;;;18.67;9.60;;;;;;;6.91;49.66;99489.91;7631099;32;38192;-75
2022/04/21 05:12:50;;;;;;;13.07;9.52;;;;;;;7.09;49.23;99488.75;7630808;32;40066;-75
2022/04/21 05:17:06;;;;;;;22.17;10.48;;;;;;;6.80;49.67;99493.59;7630789;32;39911;-75
2022/04/21 05:21:23;;;;;;;21.30;9.43;;;;;;;7.02;49.64;99503.56;7630642;32;37903;-73
2022/04/21 05:25:40;;;;;;;19.77;10.00;;;;;;;7.11;49.76;99492.03;7631492;32;37205;-75
2022/04/21 05:34:32;;;;;;;14.52;8.95;;;;;;;6.99;52.02;99504.09;7630446;32;40056;-76
2022/04/21 05:38:51;;;;;;;14.43;9.20;;;;;;;7.20;50.20;99502.41;7630269;32;38419;-74
2022/04/21 05:43:10;;;;;;;14.18;8.88;;;;;;;7.48;49.71;99496.69;7630261;32;38386;-73
2022/04/21 05:47:26;;;;;;;17.33;9.57;;;;;;;7.85;48.71;99495.88;7630235;32;39319;-73
2022/04/21 05:51:44;;;;;;;16.17;9.70;;;;;;;7.95;49.27;99484.28;7629883;32;39981;-73
2022/04/21 05:56:00;;;;;;;17.73;9.85;;;;;;;8.23;49.17;99488.50;7629729;32;38054;-73
2022/04/21 06:00:16;;;;;;;15.88;9.38;;;;;;;8.46;48.76;99489.19;7635883;32;37055;-72
2022/04/21 06:04:32;;;;;;;17.52;9.30;;;;;;;8.79;49.34;99482.50;7654529;32;39231;-73
2022/04/21 06:08:48;;;;;;;15.85;9.93;;;;;;;9.36;47.14;99490.78;7655827;32;40049;-74
2022/04/21 06:13:05;;;;;;;16.95;9.07;;;;;;;9.16;46.67;99486.16;7658914;32;38853;-73
2022/04/21 06:17:21;;;;;;;14.95;9.50;;;;;;;9.56;45.47;99489.97;7639813;32;37979;-73
2022/04/21 06:21:36;;;;;;;14.82;9.65;;;;;;;9.84;46.13;99485.06;7643141;32;39394;-73
2022/04/21 06:25:58;;;;;;;14.87;9.52;;;;;;;10.05;46.25;99481.19;7638427;32;40191;-74
2022/04/21 06:30:14;;;;;;;14.93;8.98;;;;;;;9.82;47.11;99479.88;7643343;32;38620;-73
2022/04/21 06:34:32;;;;;;;15.90;8.63;;;;;;;10.15;46.33;99470.28;7659234;32;37200;-73
2022/04/21 06:38:48;;;;;;;12.95;9.02;;;;;;;10.47;44.34;99469.13;7658756;32;39012;-75
2022/04/21 06:48:01;;;;;;;15.25;8.38;;;;;;;10.33;46.78;99465.34;7659053;32;40509;-73
2022/04/21 06:52:15;;;;;;;12.93;8.80;;;;;;;11.19;45.54;99466.00;7657494;32;37259;-73
2022/04/21 06:56:31;;;;;;;13.07;8.98;;;;;;;11.48;44.43;99457.03;7658402;32;39280;-74
2022/04/21 07:00:48;;;;;;;14.68;9.18;;;;;;;11.75;43.50;99458.44;7647818;32;41349;-73
2022/04/21 07:05:05;;;;;;;12.95;8.15;;;;;;;11.95;42.90;99452.81;7632602;32;37674;-74
2022/04/21 07:09:21;;;;;;;11.38;7.15;;;;;;;12.39;41.39;99449.03;7632470;32;37221;-74
2022/04/21 07:13:37;;;;;;;11.98;7.40;;;;;;;12.61;39.70;99455.03;7632462;32;40252;-75
2022/04/21 07:17:53;;;;;;;12.25;7.18;;;;;;;12.30;41.27;99449.97;7632366;32;39949;-74
2022/04/21 07:22:15;;;;;;;10.00;5.82;;;;;;;13.07;38.33;99447.03;7632489;32;37866;-74
2022/04/21 07:26:31;;;;;;;10.07;6.55;;;;;;;12.90;35.45;99446.72;7632428;32;37500;-74
2022/04/21 07:30:47;;;;;;;12.02;6.05;;;;;;;13.66;37.37;99447.47;7632709;32;39295;-74
2022/04/21 07:35:04;;;;;;;11.43;6.10;;;;;;;13.68;35.52;99441.69;7606189;32;40634;-75
2022/04/21 07:39:21;;;;;;;11.43;5.28;;;;;;;14.14;35.61;99448.25;7615084;32;38829;-74
2022/04/21 07:43:42;;;;;;;9.35;4.80;;;;;;;14.38;32.92;99429.66;7631885;32;38752;-74
2022/04/21 07:47:58;;;;;;;9.75;5.78;;;;;;;14.34;36.08;99439.63;7632166;32;39425;-75
2022/04/21 07:57:09;;;;;;;7.65;4.53;;;;;;;15.34;31.04;99430.56;7631184;32;37943;-75
2022/04/21 08:01:25;;;;;;;6.60;4.10;;;;;;;15.16;29.41;99426.88;7631036;32;36796;-74
2022/04/21 08:05:41;;;;;;;6.82;4.57;;;;;;;15.70;28.61;99423.34;7631051;32;39825;-77
2022/04/21 08:09:58;;;;;;;5.95;4.15;;;;;;;15.61;28.67;99419.72;7630434;32;39768;-75
2022/04/21 08:14:16;;;;;;;9.13;4.57;;;;;;;15.50;29.29;99416.44;7629526;32;37801;-74
2022/04/21 08:18:32;;;;;;;6.70;4.43;;;;;;;15.61;30.11;99415.06;7629997;32;36837;-75
2022/04/21 08:22:48;;;;;;;7.80;4.37;;;;;;;15.92;29.61;99420.59;7630855;32;39107;-74
2022/04/21 08:36:14;;;;;;;8.75;3.87;;;;;;;16.57;26.42;99409.13;7604351;32;36842;-74
2022/04/21 08:40:31;;;;;;;4.62;3.50;;;;;;;16.36;25.18;99411.69;7657499;32;38881;-76
2022/04/21 08:44:48;;;;;;;7.60;3.92;;;;;;;16.36;25.62;99418.00;7657708;32;40905;-76
2022/04/21 08:49:04;;;;;;;7.43;3.58;;;;;;;16.31;24.53;99412.63;7656178;32;37863;-75
2022/04/21 08:53:24;;;;;;;9.60;3.50;;;;;;;16.87;25.08;99399.19;7655685;32;38054;-75
2022/04/21 08:57:40;;;;;;;5.62;3.55;;;;;;;17.18;23.90;99409.22;7630556;32;39487;-76
2022/04/21 09:02:00;;;;;;;11.10;4.12;;;;;;;17.15;24.21;99413.41;7630926;32;39976;-77
2022/04/21 09:06:16;;;;;;;5.15;3.10;;;;;;;16.98;30.89;99416.97;7629802;32;37966;-76
2022/04/21 09:10:33;;;;;;;5.82;3.45;;;;;;;17.48;23.78;99410.12;7630731;32;37948;-82
2022/04/21 09:14:49;;;;;;;5.72;3.75;;;;;;;17.47;23.50;99416.78;7632124;32;39329;-81
2022/04/21 09:19:05;;;;;;;8.10;3.87;;;;;;;18.26;22.94;99411.84;7630739;32;39860;-79
2022/04/21 09:23:31;;;;;;;6.47;3.47;;;;;;;17.76;23.55;99405.03;7630526;32;37819;-80
2022/04/21 09:27:48;;;;;;;6.95;3.62;;;;;;;17.73;23.10;99410.38;7629484;32;36994;-81
2022/04/21 09:32:05;;;;;;;6.47;3.78;;;;;;;17.85;23.74;99405.03;7629073;32;39396;-77
2022/04/21 09:36:23;;;;;;;5.32;3.62;;;;;;;17.81;22.83;99406.81;7630768;32;40794;-77
2022/04/21 09:40:44;;;;;;;5.30;3.25;;;;;;;18.48;24.28;99404.41;7629783;32;38697;-77
2022/04/21 09:49:43;;;;;;;6.37;3.50;;;;;;;19.07;21.75;99385.00;7634972;32;39341;-78
2022/04/21 09:54:04;;;;;;;5.68;3.80;;;;;;;18.92;21.57;99380.91;7633336;32;40830;-77
2022/04/21 09:58:20;;;;;;;7.50;3.17;;;;;;;18.37;21.28;99387.44;7633261;32;37752;-77
2022/04/21 10:02:37;;;;;;;5.45;3.22;;;;;;;19.08;22.60;99385.81;7633034;32;37466;-77
2022/04/21 10:06:54;;;;;;;5.90;2.97;;;;;;;19.69;22.94;99377.69;7617782;32;39433;-77
2022/04/21 10:11:10;;;;;;;5.75;3.20;;;;;;;20.44;20.88;99378.56;7618095;32;39974;-77
2022/04/21 10:15:27;;;;;;;6.78;3.30;;;;;;;20.07;19.58;99378.56;7607003;32;37591;-79
2022/04/21 10:19:48;;;;;;;10.73;3.30;;;;;;;19.69;20.60;99368.59;7608452;32;38499;-79
2022/04/21 10:24:05;;;;;;;10.63;3.30;;;;;;;20.23;20.50;99362.91;7613954;32;39331;-79
2022/04/21 10:28:41;;;;;;;7.05;3.25;;;;;;;19.97;19.34;99356.91;7616128;32;40073;-77
2022/04/21 10:32:59;;;;;;;4.47;2.75;;;;;;;20.95;19.47;99344.87;7605935;32;37870;-79
2022/04/21 10:37:20;;;;;;;4.12;2.80;;;;;;;20.92;18.13;99351.94;7605994;32;37050;-78
2022/04/21 10:41:38;;;;;;;3.97;2.67;;;;;;;21.15;19.08;99348.62;7607064;32;39389;-79
2022/04/21 10:46:04;;;;;;;4.12;2.60;;;;;;;21.99;19.90;99339.31;7606748;32;40828;-80
2022/04/21 10:50:29;;;;;;;4.82;3.15;;;;;;;21.70;17.39;99338.63;7606729;32;38826;-79
2022/04/21 10:59:19;;;;;;;5.10;2.97;;;;;;;21.73;16.28;99325.97;7620347;32;39508;-81
2022/04/21 11:03:39;;;;;;;3.58;2.50;;;;;;;21.02;17.38;99334.00;7632789;32;40009;-80
2022/04/21 11:07:57;;;;;;;5.78;2.60;;;;;;;20.97;17.26;99326.75;7632825;32;37884;-80
2022/04/21 11:12:37;;;;;;;4.45;2.40;;;;;;;21.21;17.38;99313.91;7629718;32;36167;-81
2022/04/21 11:16:53;;;;;;;9.70;2.90;;;;;;;21.01;17.68;99313.78;7606515;32;39292;-80
2022/04/21 11:21:28;;;;;;;3.60;2.55;;;;;;;20.58;17.49;99309.78;7606371;32;40861;-80
2022/04/21 11:25:44;;;;;;;7.75;3.05;;;;;;;21.42;18.51;99299.84;7606308;32;37656;-79
2022/04/21 11:30:02;;;;;;;3.12;2.28;;;;;;;21.29;17.73;99310.19;7624993;32;36695;-80
2022/04/21 11:34:22;;;;;;;7.00;3.45;;;;;;;20.37;17.29;99303.59;7632517;32;39430;-79
2022/04/21 11:38:47;;;;;;;3.53;2.17;;;;;;;20.79;16.97;99297.75;7643514;32;40978;-79
2022/04/21 11:43:05;;;;;;;4.53;2.85;;;;;;;21.75;17.77;99290.38;7612337;32;38867;-79
2022/04/21 11:47:21;;;;;;;5.68;2.70;;;;;;;21.20;17.88;99295.69;7604751;32;37404;-79
2022/04/21 11:51:38;;;;;;;3.90;2.83;;;;;;;22.24;18.48;99280.81;7605506;32;40458;-78
2022/04/21 11:55:54;;;;;;;5.97;3.03;;;;;;;21.55;16.28;99293.06;7605645;32;40099;-78
2022/04/21 12:00:11;;;;;;;2.80;2.08;;;;;;;21.07;17.54;99291.38;7605761;32;38138;-79
2022/04/21 12:09:02;;;;;;;3.12;2.42;;;;;;;21.68;16.36;99282.69;7631311;32;39049;-78
2022/04/21 12:13:19;;;;;;;4.95;2.67;;;;;;;21.31;16.00;99274.59;7599256;32;40540;-79
2022/04/21 12:17:35;;;;;;;7.47;2.40;;;;;;;21.32;15.42;99273.44;7579883;33;37848;-78
2022/04/21 12:22:00;;;;;;;4.05;2.58;;;;;;;22.43;15.06;99264.19;7589797;32;37062;-77
2022/04/21 12:26:24;;;;;;;4.80;2.55;;;;;;;23.45;13.65;99248.25;7605462;32;39290;-78
2022/04/21 12:30:40;;;;;;;9.18;2.40;;;;;;;22.86;14.70;99248.38;7605197;32;40087;-78
2022/04/21 12:35:03;;;;;;;3.85;2.40;;;;;;;22.86;14.77;99244.81;7605636;32;37938;-77
2022/04/21 12:39:20;;;;;;;4.50;2.50;;;;;;;23.22;14.64;99234.38;7605728;32;37878;-78
2022/04/21 12:43:57;;;;;;;4.78;2.45;;;;;;;23.48;14.92;99238.37;7605140;32;39437;-77
2022/04/21 12:48:23;;;;;;;4.30;2.87;;;;;;;23.02;14.52;99239.94;7605784;32;40664;-78
2022/04/21 12:52:46;;;;;;;9.25;3.40;;;;;;;22.03;16.06;99258.94;7605320;32;38023;-78
2022/04/21 12:57:06;;;;;;;5.93;2.37;;;;;;;21.53;15.78;99258.53;7616278;32;37085;-78
2022/04/21 13:01:22;;;;;;;4.10;2.30;;;;;;;22.27;16.44;99244.00;7605382;32;40069;-78
2022/04/21 13:05:47;;;;;;;18.33;3.00;;;;;;;22.21;15.92;99245.44;7617020;32;40921;-78
2022/04/21 13:10:04;;;;;;;3.25;2.33;;;;;;;23.34;16.91;99239.75;7630850;32;37877;-81
2022/04/21 13:14:20;;;;;;;3.85;1.98;;;;;;;23.78;13.84;99241.22;7630806;32;38053;-78
2022/04/21 13:18:36;;;;;;;6.90;2.40;;;;;;;22.94;15.53;99248.50;7621754;32;39126;-78
2022/04/21 13:22:52;;;;;;;3.83;2.40;;;;;;;23.32;14.43;99244.06;7616669;32;39725;-77
2022/04/21 13:27:08;;;;;;;4.22;2.35;;;;;;;23.27;14.11;99236.03;7614301;32;38764;-77
2022/04/21 13:35:58;;;;;;;2.78;2.25;;;;;;;22.37;15.30;99229.56;7638876;32;39901;-74
2022/04/21 13:40:14;;;;;;;3.65;2.15;;;;;;;22.12;15.81;99243.66;7638660;32;39919;-75
2022/04/21 13:44:30;;;;;;;5.32;2.45;;;;;;;22.20;16.03;99236.31;7638750;32;37874;-81
2022/04/21 13:49:07;;;;;;;4.18;1.98;;;;;;;22.06;15.46;99242.34;7637696;32;38480;-83
2022/04/21 13:53:23;;;;;;;3.67;2.40;;;;;;;21.57;16.22;99248.34;7638293;32;40073;-74
2022/04/21 13:57:39;;;;;;;5.22;2.80;;;;;;;22.32;15.82;99238.19;7624758;32;40652;-75
2022/04/21 14:01:55;;;;;;;4.35;2.30;;;;;;;22.19;14.74;99233.88;7634175;32;37984;-75
2022/04/21 14:06:13;;;;;;;4.35;2.58;;;;;;;22.70;15.49;99236.56;7627156;32;37171;-75
2022/04/21 14:10:29;;;;;;;3.72;2.60;;;;;;;22.84;14.40;99233.25;7611939;32;39398;-76
2022/04/21 14:14:45;;;;;;;7.20;2.30;;;;;;;22.72;15.62;99234.22;7611925;32;40159;-74
2022/04/21 14:19:05;;;;;;;2.92;2.28;;;;;;;23.71;14.40;99227.22;7611629;32;38046;-77
2022/04/21 14:23:23;;;;;;;4.82;2.72;;;;;;;23.94;14.10;99233.56;7598151;32;37135;-76
2022/04/21 14:27:39;;;;;;;4.95;2.85;;;;;;;22.28;15.64;99235.31;7611623;32;39989;-75
2022/04/21 14:31:55;;;;;;;3.65;2.50;;;;;;;21.57;16.17;99243.56;7613566;32;39911;-75
2022/04/21 14:36:12;;;;;;;6.93;2.50;;;;;;;22.62;16.59;99229.25;7621629;32;37978;-76
2022/04/21 14:45:03;;;;;;;5.35;2.60;;;;;;;22.68;15.93;99222.25;7606687;32;39701;-74
2022/04/21 14:49:19;;;;;;;5.10;2.70;;;;;;;22.28;15.51;99227.00;7605206;32;40823;-74
2022/04/21 14:53:35;;;;;;;6.10;2.83;;;;;;;21.83;16.36;99233.09;7606395;32;37921;-74
2022/04/21 14:57:52;;;;;;;6.28;2.65;;;;;;;22.41;16.03;99224.88;7606456;32;37107;-75
2022/04/21 15:02:08;;;;;;;4.28;2.30;;;;;;;22.57;16.73;99232.31;7605979;32;40075;-75
2022/04/21 15:06:24;;;;;;;4.45;2.62;;;;;;;22.46;16.35;99227.34;7606328;32;39948;-75
2022/04/21 15:10:40;;;;;;;4.82;2.55;;;;;;;22.21;17.00;99226.78;7606500;32;38790;-75
2022/04/21 15:14:56;;;;;;;4.85;2.47;;;;;;;22.08;17.49;99223.34;7605789;32;37147;-75
2022/04/21 15:19:12;;;;;;;4.65;2.83;;;;;;;21.46;17.68;99231.44;7605986;32;40137;-74
2022/04/21 15:23:31;;;;;;;4.78;2.97;;;;;;;21.32;17.39;99233.84;7606168;32;40877;-75
2022/04/21 15:27:48;;;;;;;5.07;2.60;;;;;;;21.42;16.71;99219.44;7605898;32;37963;-75
2022/04/21 15:32:06;;;;;;;5.25;2.83;;;;;;;21.31;17.33;99216.37;7605892;32;37690;-74
2022/04/21 15:36:22;;;;;;;7.20;3.12;;;;;;;21.44;17.96;99219.88;7606223;32;39058;-75
2022/04/21 15:40:41;;;;;;;6.30;2.80;;;;;;;21.26;17.63;99222.19;7605884;32;39915;-75
2022/04/21 15:44:57;;;;;;;8.15;2.65;;;;;;;19.88;19.44;99225.03;7612790;32;38155;-80
2022/04/21 15:49:13;;;;;;;5.25;2.95;;;;;;;20.33;19.38;99222.41;7618204;32;37913;-77
2022/04/21 16:02:38;;;;;;;3.15;2.50;;;;;;;20.45;18.42;99211.28;7618082;32;37614;-74
2022/04/21 16:06:55;;;;;;;4.05;2.47;;;;;;;20.49;18.96;99216.94;7608607;32;37020;-73
2022/04/21 16:11:11;;;;;;;6.72;3.08;;;;;;;20.37;19.17;99209.47;7605668;32;40058;-75
2022/04/21 16:15:29;;;;;;;5.50;3.10;;;;;;;19.96;19.57;99208.69;7605626;32;40825;-73
2022/04/21 16:19:45;;;;;;;7.40;3.80;;;;;;;20.27;19.44;99211.59;7605488;32;39997;-73
2022/04/21 16:24:03;;;;;;;6.43;2.58;;;;;;;19.78;20.67;99206.19;7605647;32;37180;-73
2022/04/21 16:28:19;;;;;;;6.60;2.70;;;;;;;20.22;20.10;99209.06;7623811;32;39361;-73
2022/04/21 16:32:36;;;;;;;5.53;2.90;;;;;;;19.41;20.27;99206.16;7631658;32;39737;-73
2022/04/21 16:36:52;;;;;;;8.05;2.95;;;;;;;19.63;20.64;99209.63;7631393;32;37565;-74
2022/04/21 16:41:08;;;;;;;4.90;2.90;;;;;;;19.27;21.15;99208.47;7631338;32;37758;-73
2022/04/21 16:45:25;;;;;;;4.87;2.87;;;;;;;19.04;21.20;99205.31;7631330;32;40050;-73
2022/04/21 16:49:43;;;;;;;9.02;2.85;;;;;;;19.00;21.23;99205.19;7631112;32;39881;-72
2022/04/21 16:53:59;;;;;;;3.22;2.40;;;;;;;18.73;21.29;99204.66;7630945;32;39575;-72
2022/04/21 16:58:15;;;;;;;4.43;2.97;;;;;;;18.67;21.63;99203.25;7629982;32;37918;-73
2022/04/21 17:07:06;;;;;;;3.33;2.40;;;;;;;19.84;21.26;99210.31;7630904;32;39783;-73
2022/04/21 17:11:22;;;;;;;6.37;2.80;;;;;;;20.21;20.87;99215.78;7630649;32;38429;-74
2022/04/21 17:15:38;;;;;;;7.97;3.42;;;;;;;20.05;20.85;99214.88;7630764;32;37947;-74
2022/04/21 17:19:55;;;;;;;8.82;3.00;;;;;;;20.56;20.19;99212.41;7630480;32;39454;-74
2022/04/21 17:24:11;;;;;;;8.32;3.45;;;;;;;21.03;19.73;99218.44;7630590;32;40136;-74
2022/04/21 17:28:27;;;;;;;9.07;3.50;;;;;;;20.88;19.55;99211.69;7630152;32;37953;-74
2022/04/21 17:32:43;;;;;;;11.73;4.55;;;;;;;20.04;20.57;99213.25;7630245;32;37338;-73
2022/04/21 17:36:59;;;;;;;24.08;15.73;;;;;;;19.42;21.66;99227.12;7624615;32;40043;-72
2022/04/21 17:41:15;;;;;;;7.70;5.00;;;;;;;19.42;21.96;99221.59;7628716;32;39860;-74
2022/04/21 17:45:32;;;;;;;8.50;3.87;;;;;;;19.23;22.12;99218.56;7629095;32;38819;-74
2022/04/21 17:49:48;;;;;;;11.35;4.00;;;;;;;18.97;23.50;99230.72;7630328;32;37095;-74
2022/04/21 17:54:06;;;;;;;4.65;3.15;;;;;;;18.74;23.33;99231.09;7630174;32;40193;-73
2022/04/21 17:58:22;;;;;;;6.47;4.68;;;;;;;18.58;23.21;99228.16;7630137;32;39749;-74
2022/04/21 18:02:38;;;;;;;9.20;6.05;;;;;;;18.53;22.83;99235.84;7629981;32;37869;-73
2022/04/21 18:06:55;;;;;;;5.47;2.90;;;;;;;17.89;24.23;99248.03;7631022;32;37102;-73
2022/04/21 18:11:11;;;;;;;7.90;3.55;;;;;;;17.62;25.50;99253.63;7633518;32;39379;-74
2022/04/21 18:15:28;;;;;;;8.40;3.87;;;;;;;17.36;26.40;99262.03;7633491;32;40953;-74
2022/04/21 18:19:46;;;;;;;5.93;3.47;;;;;;;17.46;25.24;99249.84;7622133;32;37582;-73
2022/04/21 18:24:03;;;;;;;5.28;3.47;;;;;;;17.39;24.43;99260.56;7621848;32;36236;-75
2022/04/21 18:28:19;;;;;;;5.90;3.50;;;;;;;17.33;24.40;99261.87;7618651;32;39398;-76
2022/04/21 18:32:35;;;;;;;6.32;3.53;;;;;;;17.22;24.70;99262.22;7617534;32;39948;-75
2022/04/21 18:36:51;;;;;;;6.25;3.85;;;;;;;16.94;25.57;99267.34;7619330;32;38200;-73
2022/04/21 18:41:08;;;;;;;7.97;3.85;;;;;;;16.92;25.32;99269.63;7618514;32;37085;-74
2022/04/21 18:45:23;;;;;;;13.45;3.97;;;;;;;16.44;26.85;99263.16;7619704;32;39603;-74
2022/04/21 18:49:44;;;;;;;9.18;3.72;;;;;;;16.33;27.24;99267.34;7618156;32;41307;-74
2022/04/21 18:54:03;;;;;;;6.12;3.60;;;;;;;16.19;27.95;99280.44;7619304;32;36532;-73
2022/04/21 18:58:23;;;;;;;5.70;3.40;;;;;;;16.02;28.14;99271.03;7627808;32;37944;-72
2022/04/21 19:02:41;;;;;;;7.28;4.05;;;;;;;15.91;28.67;99275.22;7620676;32;40192;-72
2022/04/21 19:06:57;;;;;;;7.65;3.65;;;;;;;15.73;29.09;99283.38;7618362;32;39900;-72
2022/04/21 19:11:15;;;;;;;9.30;3.78;;;;;;;15.57;30.03;99283.00;7620147;32;37834;-72
2022/04/21 19:15:31;;;;;;;5.30;3.60;;;;;;;15.15;30.84;99277.00;7619003;32;37222;-72
2022/04/21 19:19:49;;;;;;;10.93;3.90;;;;;;;14.82;31.57;99276.47;7617333;32;39962;-74
2022/04/21 19:24:12;;;;;;;9.30;4.87;;;;;;;15.05;30.98;99270.97;7612349;32;40366;-73
2022/04/21 19:28:29;;;;;;;7.43;4.30;;;;;;;14.80;30.87;99281.47;7632587;32;37509;-75
2022/04/21 19:33:00;;;;;;;5.40;3.85;;;;;;;14.92;29.84;99284.44;7632563;32;37931;-75
2022/04/21 19:37:17;;;;;;;8.35;4.53;;;;;;;15.10;29.28;99290.03;7631340;32;39070;-74
2022/04/21 19:41:33;;;;;;;13.15;5.20;;;;;;;14.92;29.51;99278.97;7625300;32;40222;-74
2022/04/21 19:45:49;;;;;;;9.50;4.78;;;;;;;15.19;28.07;99277.16;7618730;32;37992;-74
2022/04/21 19:50:07;;;;;;;9.18;4.05;;;;;;;15.16;28.68;99278.63;7624262;32;37175;-76
2022/04/21 19:54:23;;;;;;;10.75;4.30;;;;;;;14.97;29.52;99270.59;7621555;32;39493;-74
2022/04/21 19:58:39;;;;;;;7.50;4.25;;;;;;;15.06;29.25;99278.09;7617764;32;40048;-75
2022/04/21 20:02:55;;;;;;;7.25;4.18;;;;;;;14.75;30.14;99276.91;7618139;32;38766;-75
2022/04/21 20:11:47;;;;;;;10.77;4.37;;;;;;;14.44;30.78;99271.31;7620150;32;40274;-76
2022/04/21 20:16:04;;;;;;;9.50;3.90;;;;;;;14.76;29.86;99264.00;7617380;32;39988;-75
2022/04/21 20:29:28;;;;;;;8.32;3.97;;;;;;;14.00;31.64;99281.06;7618601;32;39445;-75
2022/04/21 20:33:45;;;;;;;8.30;4.85;;;;;;;13.92;32.66;99265.34;7620651;32;40063;-75
2022/04/21 20:38:01;;;;;;;9.35;4.47;;;;;;;13.38;35.47;99259.59;7619206;32;38723;-74
2022/04/21 20:42:17;;;;;;;15.85;8.88;;;;;;;13.52;34.61;99255.75;7617516;32;37833;-73
2022/04/21 20:46:33;;;;;;;8.80;5.07;;;;;;;13.51;34.28;99258.78;7618569;32;39415;-73
2022/04/21 20:50:50;;;;;;;14.68;5.28;;;;;;;13.43;33.62;99254.81;7617626;32;40016;-73
2022/04/21 20:55:09;;;;;;;17.15;8.77;;;;;;;12.80;35.81;99263.59;7618115;32;39110;-73
2022/04/21 20:59:25;;;;;;;16.80;8.00;;;;;;;12.73;36.18;99272.22;7616636;32;37117;-74
2022/04/21 21:03:41;;;;;;;11.48;5.87;;;;;;;12.55;37.23;99265.62;7619637;32;39256;-72
2022/04/21 21:07:58;;;;;;;9.75;5.10;;;;;;;12.65;37.55;99265.47;7616453;32;39685;-74
2022/04/21 21:12:14;;;;;;;8.77;5.22;;;;;;;12.67;38.49;99257.78;7618168;32;38076;-74
2022/04/21 21:16:30;;;;;;;7.28;4.47;;;;;;;12.27;39.45;99270.97;7616703;32;37889;-75
2022/04/21 21:20:46;;;;;;;10.52;4.05;;;;;;;12.55;36.35;99265.62;7605186;32;40121;-74
2022/04/21 21:25:03;;;;;;;10.38;3.95;;;;;;;12.50;35.93;99263.78;7618309;32;39634;-73
2022/04/21 21:29:19;;;;;;;10.15;4.95;;;;;;;12.50;35.89;99268.47;7616489;32;37978;-74
2022/04/21 21:33:35;;;;;;;8.45;4.35;;;;;;;12.17;36.46;99265.66;7615590;32;37303;-73
2022/04/21 21:37:51;;;;;;;7.85;4.47;;;;;;;11.98;37.26;99274.66;7615514;32;39490;-74
2022/04/21 21:42:07;;;;;;;8.60;4.50;;;;;;;12.30;36.12;99259.47;7617902;32;40031;-74